Time;durP1;ratioP1;P1;durP2;ratioP2;P2;SDS_P1;SDS_P2;PMS_P1;PMS_P2;Temp;Humidity;BMP_temperature;BMP_pressure;BME280_temperature;BME280_humidity;BME280_pressure;Samples;Min_cycle;Max_cycle;Signal;HPM_P1;HPM_P2
2022/05/07 00:00:48;;;;;;;23.63;15.30;;;;;;;17.00;47.84;102189.25;5136996;27;20043;-64
2022/05/07 00:03:14;;;;;;;24.73;16.17;;;;;;;16.99;48.01;102189.38;5119770;27;20060;-64
2022/05/07 00:05:41;;;;;;;22.90;16.95;;;;;;;16.98;48.28;102191.22;5116388;28;20062;-63
2022/05/07 00:08:07;;;;;;;25.50;17.08;;;;;;;16.99;48.34;102187.50;5116480;28;20040;-64
2022/05/07 00:10:34;;;;;;;29.00;17.23;;;;;;;17.01;48.29;102188.25;5116360;28;20401;-63
2022/05/07 00:13:01;;;;;;;28.63;17.92;;;;;;;17.02;48.46;102189.13;5115988;28;20047;-64
2022/05/07 00:15:27;;;;;;;28.15;18.75;;;;;;;17.02;48.57;102179.13;5116042;28;20504;-64
2022/05/07 00:18:06;;;;;;;23.58;17.45;;;;;;;17.03;48.66;102175.44;5115805;28;20058;-64
2022/05/07 00:20:34;;;;;;;26.13;18.38;;;;;;;17.01;48.79;102179.25;5116275;28;20481;-64
2022/05/07 00:23:01;;;;;;;25.80;17.33;;;;;;;17.01;48.51;102176.53;5115974;28;20050;-63
2022/05/07 00:25:29;;;;;;;24.45;18.75;;;;;;;17.01;48.74;102177.41;5115993;28;20040;-64
2022/05/07 00:27:55;;;;;;;23.30;17.23;;;;;;;17.02;48.88;102181.00;5115508;28;20120;-64
2022/05/07 00:30:22;;;;;;;26.95;16.90;;;;;;;16.99;48.99;102173.09;5130203;27;20046;-64
2022/05/07 00:32:48;;;;;;;23.60;16.15;;;;;;;16.98;48.79;102172.22;5136229;27;20040;-64
2022/05/07 00:35:16;;;;;;;27.13;16.90;;;;;;;16.95;49.12;102180.59;5136521;27;20130;-63
2022/05/07 00:37:43;;;;;;;24.73;17.08;;;;;;;16.92;48.59;102174.53;5117909;27;20049;-65
2022/05/07 00:40:11;;;;;;;25.48;17.75;;;;;;;16.88;48.95;102171.19;5136146;27;20120;-64
2022/05/07 00:42:38;;;;;;;29.85;18.55;;;;;;;16.84;48.72;102172.41;5136240;27;20039;-65
2022/05/07 00:45:06;;;;;;;26.25;17.48;;;;;;;16.80;49.13;102173.63;5134613;27;20035;-64
2022/05/07 00:47:33;;;;;;;27.10;17.50;;;;;;;16.78;49.23;102170.16;5133237;27;20058;-63
2022/05/07 00:52:47;;;;;;;25.05;16.70;;;;;;;16.71;49.08;102171.63;5134667;27;20047;-64
2022/05/07 00:55:14;;;;;;;23.73;16.67;;;;;;;16.65;49.11;102167.53;5134542;27;20047;-63
2022/05/07 00:57:41;;;;;;;26.38;18.73;;;;;;;16.62;49.18;102164.16;5136130;27;20043;-63
2022/05/07 01:00:09;;;;;;;26.50;18.77;;;;;;;16.59;49.59;102164.38;5117589;27;20133;-63
2022/05/07 01:02:38;;;;;;;25.13;18.83;;;;;;;16.59;49.56;102159.81;5134499;27;20043;-63
2022/05/07 01:05:06;;;;;;;29.90;20.20;;;;;;;16.59;49.47;102165.25;5117287;27;20046;-63
2022/05/07 01:07:34;;;;;;;29.92;19.98;;;;;;;16.61;49.85;102162.41;5129843;27;20043;-63
2022/05/07 01:10:02;;;;;;;30.30;21.38;;;;;;;16.62;49.66;102161.44;5117469;27;20483;-64
2022/05/07 01:12:35;;;;;;;30.95;21.60;;;;;;;16.62;49.71;102162.28;5134454;27;20043;-64
2022/05/07 01:15:03;;;;;;;30.30;21.42;;;;;;;16.62;50.11;102154.16;5134038;27;20051;-64
2022/05/07 01:17:33;;;;;;;28.83;21.52;;;;;;;16.63;50.17;102153.19;5135824;27;20066;-64
2022/05/07 01:20:09;;;;;;;29.17;20.98;;;;;;;16.65;49.87;102158.50;5134307;27;20070;-64
2022/05/07 01:22:36;;;;;;;31.95;21.52;;;;;;;16.65;50.42;102153.97;5134108;27;20062;-64
2022/05/07 01:25:05;;;;;;;30.45;21.98;;;;;;;16.68;50.34;102153.72;5133837;27;20157;-64
2022/05/07 01:27:32;;;;;;;32.00;21.60;;;;;;;16.70;50.13;102151.75;5134028;27;20607;-63
2022/05/07 01:29:59;;;;;;;30.65;20.88;;;;;;;16.71;50.20;102155.34;5135117;27;20039;-63
2022/05/07 01:32:29;;;;;;;30.13;20.73;;;;;;;16.70;50.18;102148.19;5133874;27;20039;-63
2022/05/07 01:34:56;;;;;;;36.58;22.05;;;;;;;16.69;50.21;102151.88;5133797;27;20096;-63
2022/05/07 01:37:24;;;;;;;31.67;21.95;;;;;;;16.64;50.36;102151.34;5133901;27;20039;-64
2022/05/07 01:39:51;;;;;;;29.65;21.92;;;;;;;16.57;50.30;102144.63;5131311;27;20035;-63
2022/05/07 01:42:17;;;;;;;30.88;21.80;;;;;;;16.53;50.57;102139.44;5133867;27;20040;-63
2022/05/07 01:44:44;;;;;;;34.70;22.27;;;;;;;16.50;50.67;102145.09;5133683;27;20047;-63
2022/05/07 01:49:59;;;;;;;29.30;21.90;;;;;;;16.50;50.68;102144.25;5132293;27;20125;-64
2022/05/07 01:52:29;;;;;;;29.85;22.42;;;;;;;16.52;50.73;102143.16;5117009;27;20435;-63
2022/05/07 01:54:55;;;;;;;30.73;21.73;;;;;;;16.53;50.91;102147.59;5133333;27;20047;-64
2022/05/07 01:57:22;;;;;;;30.17;21.23;;;;;;;16.57;51.08;102150.06;5133515;27;20035;-63
2022/05/07 01:59:49;;;;;;;28.65;22.75;;;;;;;16.58;51.13;102149.94;5133457;27;20039;-63
2022/05/07 02:02:16;;;;;;;33.40;21.23;;;;;;;16.59;51.13;102139.97;5133398;27;20047;-63
2022/05/07 02:04:44;;;;;;;33.88;22.17;;;;;;;16.59;51.23;102139.97;5133174;27;20035;-64
2022/05/07 02:07:12;;;;;;;28.70;20.25;;;;;;;16.57;50.96;102137.38;5133520;27;20042;-64
2022/05/07 02:09:39;;;;;;;27.50;19.88;;;;;;;16.56;51.30;102137.50;5133406;27;20484;-63
2022/05/07 02:12:06;;;;;;;30.23;20.85;;;;;;;16.56;51.36;102140.19;5133402;27;20046;-64
2022/05/07 02:14:35;;;;;;;25.90;20.30;;;;;;;16.55;51.38;102131.19;5133045;27;20047;-63
2022/05/07 02:17:04;;;;;;;28.27;20.75;;;;;;;16.56;51.12;102130.22;5133219;27;20071;-64
2022/05/07 02:19:30;;;;;;;29.13;20.55;;;;;;;16.58;51.33;102133.69;5116247;27;20051;-63
2022/05/07 02:21:57;;;;;;;28.70;21.25;;;;;;;16.58;51.17;102130.97;5132239;27;20051;-65
2022/05/07 02:24:23;;;;;;;24.80;20.10;;;;;;;16.59;50.93;102129.97;5134218;27;20035;-63
2022/05/07 02:26:50;;;;;;;24.23;20.15;;;;;;;16.61;51.46;102129.88;5133169;27;20027;-64
2022/05/07 02:29:16;;;;;;;26.58;20.58;;;;;;;16.61;51.39;102124.44;5116088;28;20035;-63
2022/05/07 02:32:03;;;;;;;26.17;20.35;;;;;;;16.59;51.11;102129.97;5116397;28;20103;-63
2022/05/07 02:34:36;;;;;;;27.83;21.15;;;;;;;16.60;51.29;102123.56;5132980;28;20047;-63
2022/05/07 02:37:06;;;;;;;35.22;20.40;;;;;;;16.59;51.27;102127.28;5133551;28;20047;-63
2022/05/07 02:39:33;;;;;;;30.00;20.55;;;;;;;16.59;51.15;102123.69;5130109;28;20531;-63
2022/05/07 02:44:45;;;;;;;29.58;21.42;;;;;;;16.59;51.37;102120.97;5134347;27;20104;-63
2022/05/07 02:47:12;;;;;;;27.17;21.45;;;;;;;16.57;51.44;102121.09;5133274;28;20388;-63
2022/05/07 02:49:38;;;;;;;26.50;20.88;;;;;;;16.55;51.75;102114.06;5132830;28;20378;-63
2022/05/07 02:52:06;;;;;;;28.45;21.02;;;;;;;16.52;51.62;102116.03;5136340;27;20047;-62
2022/05/07 02:54:34;;;;;;;27.35;20.52;;;;;;;16.50;51.76;102118.00;5135807;27;20556;-63
2022/05/07 02:57:02;;;;;;;27.17;20.63;;;;;;;16.50;51.63;102117.13;5137277;27;20400;-64
2022/05/07 02:59:29;;;;;;;27.05;20.10;;;;;;;16.48;51.75;102111.81;5136940;27;20043;-64
2022/05/07 03:01:57;;;;;;;27.02;21.17;;;;;;;16.47;51.83;102110.09;5134251;27;20561;-64
2022/05/07 03:04:24;;;;;;;28.60;21.60;;;;;;;16.47;51.86;102112.78;5136667;27;20039;-63
2022/05/07 03:06:52;;;;;;;28.20;20.85;;;;;;;16.48;51.58;102111.81;5120350;27;20043;-63
2022/05/07 03:09:18;;;;;;;29.33;22.30;;;;;;;16.47;51.62;102104.66;5136771;27;20039;-63
2022/05/07 03:11:45;;;;;;;25.88;20.80;;;;;;;16.46;51.90;102108.34;5137977;27;20054;-63
2022/05/07 03:14:17;;;;;;;32.95;22.88;;;;;;;16.45;51.85;102103.91;5136553;27;20086;-63
2022/05/07 03:16:46;;;;;;;27.73;20.98;;;;;;;16.45;51.66;102105.75;5137862;27;20489;-63
2022/05/07 03:19:13;;;;;;;29.98;21.45;;;;;;;16.45;51.73;102106.63;5138063;27;20043;-63
2022/05/07 03:21:40;;;;;;;29.27;22.40;;;;;;;16.44;51.67;102110.31;5136585;27;20471;-63
2022/05/07 03:24:07;;;;;;;29.33;22.15;;;;;;;16.45;52.16;102112.03;5136229;27;20031;-63
2022/05/07 03:26:34;;;;;;;29.25;22.08;;;;;;;16.46;51.94;102115.63;5135868;27;20047;-63
2022/05/07 03:29:01;;;;;;;29.65;22.77;;;;;;;16.45;52.26;102109.34;5135997;27;20047;-63
2022/05/07 03:31:28;;;;;;;29.63;23.23;;;;;;;16.45;52.13;102113.91;5137589;27;20046;-63
2022/05/07 03:33:55;;;;;;;30.50;22.85;;;;;;;16.44;51.90;102113.03;5136036;27;20041;-63
2022/05/07 03:36:26;;;;;;;28.40;22.35;;;;;;;16.44;52.06;102110.31;5135663;27;20047;-63
2022/05/07 03:38:54;;;;;;;31.70;24.05;;;;;;;16.44;51.98;102107.59;5136095;27;20039;-64
2022/05/07 03:41:29;;;;;;;28.10;23.38;;;;;;;16.44;52.00;102110.31;5119539;27;20039;-63
2022/05/07 03:43:55;;;;;;;27.33;22.95;;;;;;;16.44;52.28;102107.59;5137608;27;20091;-63
2022/05/07 03:46:24;;;;;;;31.05;23.67;;;;;;;16.46;51.97;102115.63;5117898;27;20046;-64
2022/05/07 03:48:57;;;;;;;37.38;24.40;;;;;;;16.45;51.91;102109.34;5134712;27;20035;-64
2022/05/07 03:51:24;;;;;;;30.55;24.17;;;;;;;16.44;52.02;102106.75;5134504;27;20051;-64
2022/05/07 03:54:01;;;;;;;31.40;24.55;;;;;;;16.41;52.31;102110.56;5135891;27;20400;-64
2022/05/07 03:56:29;;;;;;;34.70;24.27;;;;;;;16.39;52.42;102111.66;5135824;27;20043;-63
2022/05/07 03:58:56;;;;;;;32.35;24.27;;;;;;;16.37;52.40;102117.19;5135825;27;20054;-64
2022/05/07 04:01:52;;;;;;;30.52;23.95;;;;;;;16.36;52.16;102118.16;5130179;27;20049;-63
2022/05/07 04:04:27;;;;;;;30.52;23.48;;;;;;;16.34;52.29;102116.53;5134907;27;20096;-63
2022/05/07 04:06:59;;;;;;;28.50;22.17;;;;;;;16.33;52.50;102121.06;5135556;27;20047;-64
2022/05/07 04:09:26;;;;;;;28.92;23.63;;;;;;;16.33;52.53;102118.38;5132599;27;20039;-64
2022/05/07 04:11:54;;;;;;;30.80;22.83;;;;;;;16.33;52.43;102114.78;5118885;27;20062;-63
2022/05/07 04:14:21;;;;;;;30.20;23.88;;;;;;;16.31;52.71;102116.75;5136945;27;20047;-63
2022/05/07 04:16:51;;;;;;;27.60;22.90;;;;;;;16.28;52.34;102119.69;5135385;27;20500;-64
2022/05/07 04:19:18;;;;;;;28.73;23.52;;;;;;;16.25;52.63;102123.50;5135557;27;20400;-63
2022/05/07 04:21:46;;;;;;;35.13;22.92;;;;;;;16.23;52.59;102128.16;5132858;27;20043;-63
2022/05/07 04:24:20;;;;;;;27.83;23.35;;;;;;;16.17;52.79;102124.06;5135158;27;20043;-63
2022/05/07 04:26:49;;;;;;;31.73;24.88;;;;;;;16.15;52.61;102112.47;5135246;27;20560;-64
2022/05/07 04:29:17;;;;;;;30.65;23.42;;;;;;;16.15;53.03;102128.75;5135114;27;20047;-65
2022/05/07 04:31:54;;;;;;;29.52;22.60;;;;;;;16.09;52.85;102122.91;5118775;27;20453;-63
2022/05/07 04:34:23;;;;;;;27.02;22.77;;;;;;;16.04;52.91;102127.81;5134800;27;20439;-63
2022/05/07 04:36:50;;;;;;;27.92;21.73;;;;;;;16.02;52.91;102124.34;5135190;27;20043;-63
2022/05/07 04:39:17;;;;;;;30.48;23.88;;;;;;;16.06;53.14;102128.56;5134983;27;20112;-63
2022/05/07 04:41:55;;;;;;;28.17;22.52;;;;;;;16.07;53.20;102136.56;5134020;27;20430;-64
2022/05/07 04:44:30;;;;;;;29.90;22.88;;;;;;;16.08;52.99;102130.16;5135051;27;20576;-64
2022/05/07 04:46:57;;;;;;;29.83;23.55;;;;;;;16.11;53.09;102131.78;5134906;27;20561;-63
2022/05/07 04:49:24;;;;;;;29.65;23.20;;;;;;;16.11;53.08;102129.09;5134719;27;20069;-63
2022/05/07 04:51:51;;;;;;;34.47;23.05;;;;;;;16.14;53.34;102131.56;5116741;27;20036;-64
2022/05/07 04:54:22;;;;;;;27.30;23.15;;;;;;;16.17;53.39;102131.34;5117514;27;20070;-64
2022/05/07 04:56:51;;;;;;;28.67;21.98;;;;;;;16.18;53.40;102136.63;5117436;27;20045;-64
2022/05/07 04:59:19;;;;;;;31.17;24.27;;;;;;;16.22;53.13;102140.00;5117434;27;20034;-63
2022/05/07 05:01:56;;;;;;;29.83;22.77;;;;;;;16.25;53.10;102147.91;5126852;27;20044;-64
2022/05/07 05:04:24;;;;;;;30.95;24.50;;;;;;;16.23;53.16;102139.00;5096826;28;20044;-63
2022/05/07 05:06:52;;;;;;;31.02;24.45;;;;;;;16.23;53.26;102140.84;5096899;28;20130;-64
2022/05/07 05:09:25;;;;;;;28.15;23.42;;;;;;;16.25;53.24;102133.47;5113753;28;20036;-64
2022/05/07 05:12:00;;;;;;;;;;;;;;;16.27;53.25;102151.34;5134087;27;20050;-63
2022/05/07 05:17:16;;;;;;;29.45;24.38;;;;;;;16.38;53.10;102161.44;5135563;27;20039;-64
2022/05/07 05:19:47;;;;;;;38.97;27.58;;;;;;;16.39;53.07;102153.19;5132409;27;20043;-64
2022/05/07 05:22:17;;;;;;;36.58;25.25;;;;;;;16.38;53.25;102159.59;5134864;27;20043;-63
2022/05/07 05:24:44;;;;;;;32.22;25.80;;;;;;;16.41;53.17;102164.78;5133974;27;20503;-64
2022/05/07 05:27:11;;;;;;;38.50;28.25;;;;;;;16.45;53.46;102166.28;5134026;27;20035;-63
2022/05/07 05:29:43;;;;;;;41.17;27.67;;;;;;;16.50;53.56;102171.34;5128851;27;20535;-64
2022/05/07 05:32:17;;;;;;;37.28;27.85;;;;;;;16.55;53.76;102179.16;5133930;27;20481;-64
2022/05/07 05:34:53;;;;;;;37.15;28.70;;;;;;;16.61;53.81;102175.97;5133558;27;20071;-64
2022/05/07 05:37:30;;;;;;;44.35;27.73;;;;;;;16.66;53.61;102177.38;5133923;27;20044;-64
2022/05/07 05:39:57;;;;;;;39.35;29.23;;;;;;;16.69;53.90;102174.44;5130939;27;20501;-63
2022/05/07 05:42:26;;;;;;;41.40;29.30;;;;;;;16.74;54.01;102183.09;5133926;27;20099;-63
2022/05/07 05:44:53;;;;;;;37.22;29.95;;;;;;;16.81;54.13;102180.78;5134997;27;20043;-64
2022/05/07 05:47:22;;;;;;;41.10;29.13;;;;;;;16.88;54.11;102182.03;5133699;27;20042;-63
2022/05/07 05:49:52;;;;;;;34.25;28.27;;;;;;;16.96;54.28;102182.31;5129663;27;20047;-64
2022/05/07 05:52:27;;;;;;;33.40;28.02;;;;;;;17.04;54.28;102182.59;5134102;27;20471;-64
2022/05/07 05:54:54;;;;;;;41.00;29.95;;;;;;;17.09;54.23;102180.44;5134456;27;20057;-64
2022/05/07 05:57:22;;;;;;;38.75;30.35;;;;;;;17.14;54.12;102186.38;5133350;27;20039;-64
2022/05/07 05:59:49;;;;;;;39.78;30.23;;;;;;;17.21;54.03;102175.91;5130496;27;20035;-64
2022/05/07 06:02:18;;;;;;;36.10;29.60;;;;;;;17.29;53.92;102181.59;5132394;27;20042;-63
2022/05/07 06:04:53;;;;;;;42.65;30.08;;;;;;;17.38;54.25;102186.28;5133250;27;20134;-63
2022/05/07 06:07:23;;;;;;;42.15;32.80;;;;;;;17.47;54.00;102190.13;5133401;27;20043;-63
2022/05/07 06:09:54;;;;;;;40.83;30.67;;;;;;;17.55;54.08;102193.13;5127474;27;20396;-63
2022/05/07 06:12:24;;;;;;;53.97;31.67;;;;;;;17.60;54.35;102190.03;5116267;27;20051;-64
2022/05/07 06:14:54;;;;;;;45.80;29.33;;;;;;;17.67;54.29;102188.59;5115886;27;20039;-63
2022/05/07 06:17:25;;;;;;;39.28;29.60;;;;;;;17.73;54.07;102197.13;5116166;27;20081;-63
2022/05/07 06:19:52;;;;;;;37.60;27.52;;;;;;;17.78;53.92;102199.47;5114950;28;20046;-63
2022/05/07 06:22:19;;;;;;;38.63;30.83;;;;;;;17.86;53.84;102198.88;5115980;28;20057;-63
2022/05/07 06:27:50;;;;;;;36.28;27.55;;;;;;;18.08;53.85;102196.16;5132662;27;20050;-63
2022/05/07 06:30:25;;;;;;;33.00;24.63;;;;;;;18.15;53.57;102201.94;5121167;27;20055;-63
2022/05/07 06:32:54;;;;;;;29.88;23.63;;;;;;;18.20;53.37;102199.72;5132868;28;20130;-63
2022/05/07 06:35:27;;;;;;;30.05;23.05;;;;;;;18.26;53.33;102201.94;5132969;28;20539;-63
2022/05/07 06:37:59;;;;;;;26.63;23.42;;;;;;;18.34;53.11;102208.47;5133106;28;20043;-63
2022/05/07 06:40:27;;;;;;;30.55;22.95;;;;;;;18.39;52.83;102197.22;5133555;27;20062;-66
2022/05/07 06:42:55;;;;;;;25.83;22.17;;;;;;;18.46;53.02;102200.28;5133118;28;20400;-65
2022/05/07 06:45:45;;;;;;;27.05;21.30;;;;;;;18.56;52.62;102198.53;5128604;28;20050;-64
2022/05/07 06:48:13;;;;;;;26.63;21.00;;;;;;;18.66;52.83;102203.16;5130550;28;20075;-65
2022/05/07 06:50:40;;;;;;;27.63;19.88;;;;;;;18.77;52.58;102210.41;5116377;28;20519;-64
2022/05/07 06:53:08;;;;;;;25.20;18.77;;;;;;;18.87;52.46;102199.59;5120210;28;20545;-64
2022/05/07 06:55:54;;;;;;;25.42;17.60;;;;;;;18.96;52.21;102196.97;5115660;28;20047;-64
2022/05/07 06:58:39;;;;;;;23.77;16.95;;;;;;;19.10;51.88;102194.91;5133026;28;20122;-64
2022/05/07 07:01:06;;;;;;;23.15;14.77;;;;;;;19.20;51.16;102194.00;5133068;28;20497;-64
2022/05/07 07:03:33;;;;;;;24.17;15.82;;;;;;;19.31;51.28;102195.78;5134174;27;20397;-65
2022/05/07 07:06:00;;;;;;;19.88;14.60;;;;;;;19.42;51.11;102190.31;5134035;27;20047;-64
2022/05/07 07:08:29;;;;;;;18.15;14.95;;;;;;;19.57;50.49;102190.84;5134015;27;20028;-64
2022/05/07 07:10:56;;;;;;;20.95;14.65;;;;;;;19.70;50.19;102199.69;5134010;27;20039;-64
2022/05/07 07:13:23;;;;;;;25.17;15.00;;;;;;;19.86;50.38;102194.59;5134039;27;20043;-65
2022/05/07 07:15:50;;;;;;;21.77;15.13;;;;;;;20.08;49.92;102198.16;5134094;27;20393;-64
2022/05/07 07:18:17;;;;;;;20.10;14.77;;;;;;;20.24;49.37;102198.50;5132799;27;20130;-65
2022/05/07 07:20:48;;;;;;;21.50;14.13;;;;;;;20.35;49.48;102194.78;5131881;27;20031;-64
2022/05/07 07:23:14;;;;;;;24.35;15.52;;;;;;;20.45;48.84;102199.28;5134012;27;20442;-64
2022/05/07 07:25:42;;;;;;;23.83;15.95;;;;;;;20.58;48.71;102201.75;5133739;27;20039;-64
2022/05/07 07:28:10;;;;;;;23.63;16.23;;;;;;;20.72;48.76;102195.88;5133698;27;20039;-64
2022/05/07 07:30:37;;;;;;;20.73;16.45;;;;;;;20.87;48.09;102194.50;5133582;27;20050;-64
2022/05/07 07:33:05;;;;;;;27.08;15.48;;;;;;;21.01;47.96;102195.06;5133519;27;20047;-64
2022/05/07 07:35:32;;;;;;;23.33;16.17;;;;;;;21.19;47.84;102194.19;5133867;27;20061;-64
2022/05/07 07:37:58;;;;;;;21.80;15.63;;;;;;;21.34;47.34;102197.38;5133967;27;20507;-64
2022/05/07 07:40:26;;;;;;;24.73;16.02;;;;;;;21.46;47.14;102198.06;5137438;27;20088;-65
2022/05/07 07:42:52;;;;;;;20.33;15.35;;;;;;;21.52;47.18;102198.31;5137494;27;20400;-64
2022/05/07 07:48:04;;;;;;;21.15;15.55;;;;;;;21.76;46.70;102200.59;5137302;27;20484;-64
2022/05/07 07:50:34;;;;;;;25.05;15.27;;;;;;;21.93;46.49;102198.09;5133369;27;20096;-63
2022/05/07 07:53:11;;;;;;;22.15;15.07;;;;;;;22.08;46.28;102199.34;5137470;27;20403;-64
2022/05/07 07:55:39;;;;;;;19.30;15.00;;;;;;;22.26;45.74;102200.25;5135873;27;20035;-62
2022/05/07 07:58:09;;;;;;;23.80;15.05;;;;;;;22.46;45.83;102201.03;5137003;27;20039;-64
2022/05/07 08:00:37;;;;;;;24.08;14.98;;;;;;;22.64;45.32;102192.84;5137091;27;20043;-63
2022/05/07 08:03:14;;;;;;;21.98;15.05;;;;;;;22.78;45.22;102203.25;5137266;27;20043;-63
2022/05/07 08:05:42;;;;;;;26.35;16.05;;;;;;;22.89;44.50;102197.59;5137141;27;20485;-64
2022/05/07 08:13:44;;;;;;;20.13;14.35;;;;;;;23.21;44.08;102197.03;5130229;27;20086;-64
2022/05/07 08:16:11;;;;;;;21.60;15.27;;;;;;;23.41;43.73;102194.97;5136915;27;20039;-63
2022/05/07 08:18:39;;;;;;;21.55;15.63;;;;;;;23.61;43.55;102199.25;5137073;27;20043;-63
2022/05/07 08:21:07;;;;;;;20.75;15.77;;;;;;;23.82;43.33;102196.16;5135413;27;20471;-64
2022/05/07 08:23:34;;;;;;;21.17;15.13;;;;;;;24.05;42.93;102193.69;5136751;27;20125;-63
2022/05/07 08:26:04;;;;;;;22.23;16.08;;;;;;;24.32;42.85;102190.75;5136546;27;20043;-64
2022/05/07 08:28:31;;;;;;;21.95;17.13;;;;;;;24.44;41.73;102195.94;5117233;27;20035;-64
2022/05/07 08:30:58;;;;;;;21.27;16.67;;;;;;;24.50;41.64;102195.25;5134516;27;20043;-64
2022/05/07 08:33:25;;;;;;;22.80;17.45;;;;;;;24.53;41.02;102192.22;5135744;27;20092;-64
2022/05/07 08:35:51;;;;;;;21.65;16.60;;;;;;;24.56;40.98;102195.47;5136406;27;20054;-63
2022/05/07 08:38:20;;;;;;;21.88;17.35;;;;;;;24.64;40.76;102198.25;5136616;27;20119;-64
2022/05/07 08:40:47;;;;;;;19.40;16.00;;;;;;;24.71;40.48;102192.94;5136347;27;20050;-63
2022/05/07 08:43:16;;;;;;;22.63;17.63;;;;;;;24.78;40.65;102187.63;5136225;27;20104;-64
2022/05/07 08:45:44;;;;;;;21.17;17.35;;;;;;;24.87;40.25;102192.97;5135154;27;20038;-64
2022/05/07 08:48:11;;;;;;;24.70;17.52;;;;;;;24.92;39.99;102201.53;5136361;27;20054;-62
2022/05/07 08:50:41;;;;;;;23.17;16.48;;;;;;;24.94;39.78;102198.63;5136188;27;20438;-63
2022/05/07 08:53:09;;;;;;;21.17;16.35;;;;;;;25.01;39.70;102192.31;5135844;27;20043;-64
2022/05/07 08:55:36;;;;;;;29.40;17.75;;;;;;;25.09;39.55;102194.19;5135994;27;20092;-63
2022/05/07 08:58:03;;;;;;;25.65;18.35;;;;;;;25.16;39.54;102194.38;5136142;27;20502;-64
2022/05/07 09:00:29;;;;;;;23.33;17.05;;;;;;;25.24;39.37;102189.72;5135802;27;20039;-64
2022/05/07 09:02:58;;;;;;;22.23;17.45;;;;;;;25.32;39.04;102191.66;5135862;27;20031;-64
2022/05/07 09:05:36;;;;;;;23.38;15.38;;;;;;;25.45;38.67;102193.88;5134753;27;20402;-64
2022/05/07 09:08:05;;;;;;;22.98;16.63;;;;;;;25.55;38.48;102183.53;5135837;27;20047;-64
2022/05/07 09:10:37;;;;;;;25.40;17.13;;;;;;;25.66;38.43;102191.47;5134998;27;20051;-64
2022/05/07 09:13:16;;;;;;;22.20;17.70;;;;;;;25.72;38.11;102184.41;5131223;27;20041;-64
2022/05/07 09:15:57;;;;;;;21.63;17.63;;;;;;;25.68;37.62;102189.38;5135694;27;20381;-64
2022/05/07 09:18:25;;;;;;;25.02;17.70;;;;;;;25.69;37.69;102191.09;5135498;27;20035;-65
2022/05/07 09:21:26;;;;;;;29.08;16.70;;;;;;;25.66;37.46;102185.94;5136135;27;20039;-64
2022/05/07 09:23:56;;;;;;;20.83;16.08;;;;;;;25.68;37.48;102183.03;5120523;27;20046;-65
2022/05/07 09:26:39;;;;;;;21.77;16.83;;;;;;;25.76;37.24;102186.63;5123277;27;20134;-65
2022/05/07 09:29:08;;;;;;;25.00;16.65;;;;;;;25.86;37.32;102181.78;5135392;27;20039;-63
2022/05/07 09:31:36;;;;;;;22.02;15.95;;;;;;;25.98;37.26;102185.00;5137455;27;20428;-63
2022/05/07 09:36:59;;;;;;;;;;;;;;;26.19;37.07;102177.03;5135799;27;20058;-63
2022/05/07 09:39:32;;;;;;;24.98;16.52;;;;;;;26.25;36.86;102183.69;5134318;27;19941;-63
2022/05/07 09:42:01;;;;;;;23.38;17.55;;;;;;;26.31;36.60;102188.50;5133639;27;20571;-64
2022/05/07 09:44:28;;;;;;;23.88;17.13;;;;;;;26.43;36.74;102183.47;5134298;27;20035;-64
2022/05/07 09:46:56;;;;;;;26.80;16.45;;;;;;;26.54;36.42;102183.91;5116426;27;20058;-63
2022/05/07 09:49:25;;;;;;;27.27;18.70;;;;;;;26.59;36.34;102181.47;5132828;27;20043;-64
2022/05/07 09:51:53;;;;;;;26.63;17.60;;;;;;;26.65;35.99;102184.53;5134759;27;20530;-63
2022/05/07 09:57:56;;;;;;;24.15;17.02;;;;;;;26.79;35.41;102181.88;5135177;27;20046;-63
2022/05/07 10:00:25;;;;;;;27.20;18.05;;;;;;;26.89;35.52;102182.50;5115443;27;20047;-64
2022/05/07 10:03:15;;;;;;;25.80;17.60;;;;;;;26.97;35.31;102177.97;5134616;27;20042;-63
2022/05/07 10:06:07;;;;;;;21.88;15.85;;;;;;;27.12;35.35;102181.66;5116310;27;20043;-63
2022/05/07 10:08:59;;;;;;;24.67;17.48;;;;;;;27.12;34.96;102182.53;5134794;27;20043;-62
2022/05/07 10:11:26;;;;;;;29.35;18.52;;;;;;;27.12;34.83;102182.53;5133739;27;20469;-63
2022/05/07 10:13:58;;;;;;;23.25;17.42;;;;;;;27.10;34.43;102175.47;5134520;27;20047;-62
2022/05/07 10:16:29;;;;;;;22.92;16.17;;;;;;;27.02;34.24;102181.91;5134481;27;20043;-63
2022/05/07 10:18:55;;;;;;;22.77;15.27;;;;;;;26.96;34.03;102177.09;5134867;27;20488;-62
2022/05/07 10:21:23;;;;;;;22.33;16.58;;;;;;;26.89;33.98;102179.75;5132883;27;20027;-63
2022/05/07 10:23:56;;;;;;;26.02;15.70;;;;;;;26.87;34.02;102172.69;5134206;27;20039;-63
2022/05/07 10:26:39;;;;;;;20.67;15.75;;;;;;;26.87;34.14;102175.47;5134520;27;20035;-63
2022/05/07 10:29:07;;;;;;;20.27;14.40;;;;;;;26.91;34.00;102172.16;5134293;27;20114;-63
2022/05/07 10:31:44;;;;;;;24.17;15.18;;;;;;;26.90;33.57;102166.81;5133212;27;20075;-62
2022/05/07 10:34:23;;;;;;;18.77;13.57;;;;;;;26.87;33.78;102175.47;5133988;27;20485;-63
2022/05/07 10:37:03;;;;;;;17.80;13.15;;;;;;;26.92;33.58;102167.50;5134271;27;20403;-63
2022/05/07 10:39:31;;;;;;;17.05;12.80;;;;;;;27.00;33.31;102167.47;5132338;27;20473;-63
2022/05/07 10:42:01;;;;;;;18.02;12.23;;;;;;;27.12;33.38;102167.88;5134270;27;20089;-63
2022/05/07 10:44:30;;;;;;;16.13;11.93;;;;;;;27.26;33.03;102163.44;5134318;27;20043;-63
2022/05/07 10:47:08;;;;;;;17.23;12.35;;;;;;;27.36;32.46;102164.03;5134461;27;20043;-64
2022/05/07 10:49:35;;;;;;;17.55;12.18;;;;;;;27.49;32.47;102165.09;5133599;27;20039;-63
2022/05/07 10:52:03;;;;;;;15.15;11.05;;;;;;;27.61;32.10;102168.31;5133357;27;20159;-63
2022/05/07 10:54:30;;;;;;;21.45;11.57;;;;;;;27.74;31.95;102164.88;5134087;27;20047;-63
2022/05/07 10:56:58;;;;;;;15.02;11.02;;;;;;;27.89;31.62;102167.66;5133954;28;20046;-63
2022/05/07 10:59:27;;;;;;;17.48;10.15;;;;;;;28.00;31.35;102156.13;5132825;27;20040;-64
2022/05/07 11:02:08;;;;;;;14.57;9.63;;;;;;;28.14;31.10;102158.00;5133991;28;20042;-63
2022/05/07 11:04:44;;;;;;;12.30;9.65;;;;;;;28.31;30.71;102150.41;5133861;28;20044;-63
2022/05/07 11:07:10;;;;;;;15.63;11.60;;;;;;;28.44;30.74;102139.50;5133839;28;20047;-63
2022/05/07 11:09:37;;;;;;;16.90;11.23;;;;;;;28.60;30.71;102146.69;5132946;28;20408;-63
2022/05/07 11:12:05;;;;;;;16.23;12.05;;;;;;;28.76;30.60;102143.69;5133994;27;20035;-63
2022/05/07 11:14:35;;;;;;;16.15;9.73;;;;;;;28.85;30.21;102142.53;5136596;27;20038;-63
2022/05/07 11:17:04;;;;;;;14.65;9.38;;;;;;;28.82;29.85;102134.59;5130826;27;20454;-64
2022/05/07 11:19:33;;;;;;;13.00;9.30;;;;;;;28.82;29.29;102140.13;5137101;27;20047;-63
2022/05/07 11:22:04;;;;;;;17.90;8.35;;;;;;;28.78;29.19;102133.28;5138048;27;20047;-64
2022/05/07 11:24:32;;;;;;;11.93;8.60;;;;;;;28.84;28.77;102132.50;5136771;27;20085;-63
2022/05/07 11:27:06;;;;;;;13.55;7.60;;;;;;;28.91;28.81;102138.97;5136040;27;20054;-63
2022/05/07 11:29:34;;;;;;;7.45;5.38;;;;;;;29.10;28.61;102141.06;5137775;27;20074;-63
2022/05/07 11:32:07;;;;;;;9.82;5.15;;;;;;;29.28;27.91;102139.72;5137575;27;20054;-63
2022/05/07 11:34:35;;;;;;;13.10;7.20;;;;;;;29.46;27.56;102134.56;5137495;27;20058;-63
2022/05/07 11:37:19;;;;;;;12.07;8.13;;;;;;;29.57;27.37;102124.84;5137328;27;20047;-63
2022/05/07 11:39:50;;;;;;;10.45;8.20;;;;;;;29.65;27.00;102128.31;5137607;27;20031;-64
2022/05/07 11:42:35;;;;;;;15.18;8.35;;;;;;;29.62;27.29;102125.09;5131724;27;20421;-63
2022/05/07 11:45:25;;;;;;;14.40;9.70;;;;;;;29.60;27.62;102121.66;5136310;27;20100;-64
2022/05/07 11:47:55;;;;;;;14.98;9.48;;;;;;;29.63;28.10;102119.34;5133655;27;20442;-64
2022/05/07 11:50:25;;;;;;;12.88;8.32;;;;;;;29.73;28.04;102121.78;5116730;28;20043;-64